Terminal Aerodrome Forecast
Issued by NWS

Home | Current Version | Previous Version | Text Only | Print | Product List | Glossary On
Versions: 1 2 3 4 5 6 7 8 9 10 11 12 13 14 15 16 17 18 19 20 21 22 23 24
000
FTUS45 KPSR 252335
TAFPHX
TAF
KPHX 252335Z 2600/2624 36008KT P6SM FEW100
      TEMPO 2600/2602 VRB05KT
     FM260600 08011KT P6SM SCT090 BKN180
     FM261700 11016G26KT P6SM SCT080 OVC160=

USA.gov is the U.S. government's official web portal to all federal, state and local government web resources and services.